Nearby METAR Reports

 

KISP - Islip, New York, USA
Distance from station: SW 4mi, 6km
Updated: Thu, 09/16/2021 5:56 pm EDT
Overcast
Overcast
 Wind from ENE
Wind: ENE 9 mph , 15 km/h
Temperature: 75°F , 24°C
Dew Point: 66°F , 19°C
Humidity: 74%
Barometer: 30.22 inHg , 1023.4 hPa
Clouds: Overcast
Visibility: 10 miles , 16 km
Cloud details: Overcast 2400 ft
2021/09/16 21:56 KISP 162156Z 06008KT 10SM OVC024 24/19 A3022 RMK AO2 SLP232 T02390194
KHWV - Shirley, New York, USA
Distance from station: E 10mi, 16km
Updated: Thu, 09/16/2021 5:56 pm EDT
Overcast
Overcast
 Wind from varies
Wind: varies 3 mph , 6 km/h
Temperature: 73°F , 23°C
Dew Point: 66°F , 19°C
Humidity: 78%
Barometer: 30.22 inHg , 1023.4 hPa
Clouds: Overcast
Visibility: 10 miles , 16 km
Cloud details: Partly cloudy 1600 ft
Overcast 2900 ft
2021/09/16 21:56 KHWV 162156Z AUTO VRB03KT 10SM SCT016 OVC029 23/19 A3022 RMK AO2 SLP233 T02330189
 
KFRG - Farmingdale, New York, USA
Distance from station: WSW 20mi, 33km
Updated: Thu, 09/16/2021 5:53 pm EDT
Overcast
Overcast
 Wind from ESE
Wind: ESE 9 mph , 15 km/h
Temperature: 75°F , 24°C
Dew Point: 66°F , 19°C
Humidity: 74%
Barometer: 30.21 inHg , 1023 hPa
Clouds: Overcast
Visibility: 10 miles , 16 km
Cloud details: Overcast 3300 ft
2021/09/16 21:53 KFRG 162153Z AUTO 11008KT 10SM OVC033 24/19 A3021 RMK AO2 SLP230 T02440194
KBDR - Bridgeport, Connecticut, USA
Distance from station: N 23mi, 37km
Updated: Thu, 09/16/2021 5:52 pm EDT
Overcast
Overcast
 Wind from E
Wind: E 13 mph , 20 km/h
Temperature: 73°F , 23°C
Dew Point: 66°F , 19°C
Humidity: 78%
Barometer: 30.22 inHg , 1023.4 hPa
Clouds: Overcast
Visibility: 10 miles , 16 km
Cloud details: Mostly cloudy 4500 ft
Overcast 9000 ft
2021/09/16 21:52 KBDR 162152Z 08011KT 10SM BKN045 OVC090 23/19 A3022 RMK AO2 SLP234 T02330189
 
KFOK - Westhampton Beac, New York, USA
Distance from station: E 23mi, 37km
Updated: Thu, 09/16/2021 5:53 pm EDT
Overcast
Overcast
 Wind from E
Wind: E 6 mph , 9 km/h
Temperature: 72°F , 22°C
Dew Point: 66°F , 19°C
Humidity: 83%
Barometer: 30.24 inHg , 1024 hPa
Clouds: Overcast
Visibility: 10 miles , 16 km
Cloud details: Mostly cloudy 1200 ft
Overcast 2200 ft
2021/09/16 21:53 KFOK 162153Z 10005KT 10SM BKN012 OVC022 22/19 A3024 RMK AO2 SLP239 T02220194
KHVN - New Haven/Tweed, Connecticut, USA
Distance from station: NNE 31mi, 50km
Updated: Thu, 09/16/2021 5:53 pm EDT
Overcast
Overcast
 Wind from NE
Wind: NE 7 mph , 11 km/h
Temperature: 73°F , 23°C
Dew Point: 68°F , 20°C
Humidity: 83%
Barometer: 30.23 inHg , 1023.7 hPa
Clouds: Overcast
Visibility: 10 miles , 16 km
Cloud details: Overcast 4800 ft
2021/09/16 21:53 KHVN 162153Z 04006KT 10SM OVC048 23/20 A3023 RMK AO2 SLP236 T02330200
 
KHPN - White Plains, New York, USA
Distance from station: WNW 37mi, 60km
Updated: Thu, 09/16/2021 5:56 pm EDT
Mostly cloudy
Mostly cloudy
 Wind from varies
Wind: varies 7 mph , 11 km/h
Temperature: 72°F , 22°C
Dew Point: 66°F , 19°C
Humidity: 83%
Barometer: 30.23 inHg , 1023.7 hPa
Clouds: Mostly cloudy
Visibility: 10 miles , 16 km
Cloud details: Few Clouds 1500 ft
Partly cloudy 4400 ft
Mostly cloudy 7000 ft
2021/09/16 21:56 KHPN 162156Z VRB06KT 10SM FEW015 SCT044 BKN070 22/19 A3023 RMK AO2 SLP233 T02170189
KJFK - Nyc/Jfk Arpt, New York, USA
Distance from station: WSW 40mi, 64km
Updated: Thu, 09/16/2021 5:51 pm EDT
Mostly cloudy
Mostly cloudy
 Wind from ESE
Wind: ESE 10 mph , 17 km/h
Temperature: 73°F , 23°C
Dew Point: 68°F , 20°C
Humidity: 83%
Barometer: 30.21 inHg , 1023 hPa
Clouds: Mostly cloudy
Visibility: 10 miles , 16 km
Cloud details: Partly cloudy 2500 ft
Mostly cloudy 4000 ft
Mostly cloudy 25000 ft
2021/09/16 21:51 KJFK 162151Z 11009KT 10SM SCT025 BKN040 BKN250 23/20 A3021 RMK AO2 RAE2056 SLP230 P0000 T02330200
 
KDXR - Danbury, Connecticut, USA
Distance from station: NNW 42mi, 68km
Updated: Thu, 09/16/2021 5:53 pm EDT
Overcast
Overcast
 Wind from E
Wind: E 7 mph , 11 km/h
Temperature: 73°F , 23°C
Dew Point: 64°F , 18°C
Humidity: 74%
Barometer: 30.25 inHg , 1024.4 hPa
Clouds: Overcast
Visibility: 10 miles , 16 km
Cloud details: Mostly cloudy 4500 ft
Overcast 5000 ft
2021/09/16 21:53 KDXR 162153Z 08006KT 10SM BKN045 OVC050 23/18 A3025 RMK AO2 SLP238 T02330183
KHTO - East Hampton, New York, USA
Distance from station: E 43mi, 69km
Updated: Thu, 09/16/2021 5:55 pm EDT
Overcast
Overcast
 Wind from ENE
Wind: ENE 8 mph , 13 km/h
Temperature: 70°F , 21°C
Dew Point: 68°F , 20°C
Humidity: 94%
Barometer: 30.23 inHg , 1023.7 hPa
Clouds: Overcast
Visibility: 10 miles , 16 km
Cloud details: Mostly cloudy 1100 ft
Overcast 2600 ft
2021/09/16 21:55 KHTO 162155Z AUTO 06007KT 10SM BKN011 OVC026 21/20 A3023 RMK AO2 T02110195
 
KOXC - Oxford/Waterbury, Connecticut, USA
Distance from station: N 43mi, 70km
Updated: Thu, 09/16/2021 5:51 pm EDT
Overcast
Overcast
 Wind from E
Wind: E 5 mph , 7 km/h
Temperature: 70°F , 21°C
Dew Point: 64°F , 18°C
Humidity: 83%
Barometer: 30.26 inHg , 1024.7 hPa
Clouds: Overcast
Visibility: 10 miles , 16 km
Cloud details: Partly cloudy 2000 ft
Overcast 5000 ft
2021/09/16 21:51 KOXC 162151Z 08004KT 10SM SCT020 OVC050 21/18 A3026 RMK AO2 SLP255 T02110178
KLGA - Nyc/La Guardia, New York, USA
Distance from station: W 44mi, 70km
Updated: Thu, 09/16/2021 5:51 pm EDT
Overcast
Overcast
 Wind from ENE
Wind: ENE 16 mph , 26 km/h
Temperature: 75°F , 24°C
Dew Point: 64°F , 18°C
Humidity: 69%
Barometer: 30.20 inHg , 1022.7 hPa
Clouds: Overcast
Visibility: 10 miles , 16 km
Cloud details: Few Clouds 2500 ft
Mostly cloudy 3200 ft
Overcast 6500 ft
2021/09/16 21:51 KLGA 162151Z 06014KT 10SM FEW025 BKN032 OVC065 24/18 A3020 RMK AO2 SLP228 T02390183
 
KSNC - Chester, Connecticut, USA
Distance from station: NE 47mi, 76km
Updated: Thu, 09/16/2021 5:55 pm EDT
Overcast
Overcast
 Wind from ENE
Wind: ENE 5 mph , 7 km/h
Temperature: 72°F , 22°C
Dew Point: 68°F , 20°C
Humidity: 88%
Barometer: 30.25 inHg , 1024.4 hPa
Clouds: Overcast
Visibility: 10 miles , 16 km
Cloud details: Mostly cloudy 1800 ft
Overcast 4300 ft
2021/09/16 21:55 KSNC 162155Z AUTO 07004KT 10SM BKN018 OVC043 22/20 A3025 RMK AO2
KMMK - Meriden, Connecticut, USA
Distance from station: NNE 48mi, 77km
Updated: Thu, 09/16/2021 5:53 pm EDT
Overcast
Overcast
 Wind from ENE
Wind: ENE 5 mph , 7 km/h
Temperature: 73°F , 23°C
Dew Point: 63°F , 17°C
Humidity: 69%
Barometer: 30.24 inHg , 1024 hPa
Clouds: Overcast
Visibility: 10 miles , 16 km
Cloud details: Overcast 5500 ft
2021/09/16 21:53 KMMK 162153Z AUTO 06004KT 10SM OVC055 23/17 A3024 RMK AO2 SLP238 T02280172
 
KNYC - Nyc/Central Park, New York, USA
Distance from station: W 48mi, 77km
Updated: Thu, 09/16/2021 5:51 pm EDT
Overcast
Overcast
 
Temperature: 73°F , 23°C
Dew Point: 64°F , 18°C
Humidity: 74%
Barometer: 30.24 inHg , 1024 hPa
Clouds: Overcast
Visibility: 10 miles , 16 km
Cloud details: Overcast 3000 ft
2021/09/16 21:51 KNYC 162151Z AUTO 10SM OVC030 23/18 A3024 RMK AO2 SLP231 T02330183 $